sensor_id;sensor_type;location;lat;lon;timestamp;pressure;altitude;pressure_sealevel;temperature;humidity
56414;BME280;42318;48.452;19.526;2024-02-21T00:02:03;98863.03;;;21.64;52.58
56414;BME280;42318;48.452;19.526;2024-02-21T00:05:04;98860.06;;;21.66;52.13
56414;BME280;42318;48.452;19.526;2024-02-21T00:08:05;98864.69;;;21.66;52.41
56414;BME280;42318;48.452;19.526;2024-02-21T00:11:06;98853.22;;;21.63;52.40
56414;BME280;42318;48.452;19.526;2024-02-21T00:14:07;98852.38;;;21.63;52.28
56414;BME280;42318;48.452;19.526;2024-02-21T00:17:07;98844.97;;;21.58;52.21
56414;BME280;42318;48.452;19.526;2024-02-21T00:20:09;98849.41;;;21.64;52.05
56414;BME280;42318;48.452;19.526;2024-02-21T00:23:10;98853.22;;;21.63;52.34
56414;BME280;42318;48.452;19.526;2024-02-21T00:26:12;98855.13;;;21.63;52.33
56414;BME280;42318;48.452;19.526;2024-02-21T00:29:13;98851.56;;;21.62;52.21
56414;BME280;42318;48.452;19.526;2024-02-21T00:32:14;98853.22;;;21.63;52.42
56414;BME280;42318;48.452;19.526;2024-02-21T00:35:15;98849.66;;;21.63;52.48
56414;BME280;42318;48.452;19.526;2024-02-21T00:38:15;98848.84;;;21.62;52.34
56414;BME280;42318;48.452;19.526;2024-02-21T00:41:16;98836.50;;;21.55;52.05
56414;BME280;42318;48.452;19.526;2024-02-21T00:44:18;98851.56;;;21.62;52.35
56414;BME280;42318;48.452;19.526;2024-02-21T00:47:18;98846.38;;;21.61;52.39
56414;BME280;42318;48.452;19.526;2024-02-21T00:50:19;98846.94;;;21.63;52.14
56414;BME280;42318;48.452;19.526;2024-02-21T00:53:20;98853.47;;;21.62;52.10
56414;BME280;42318;48.452;19.526;2024-02-21T00:56:21;98848.00;;;21.62;52.18
56414;BME280;42318;48.452;19.526;2024-02-21T00:59:21;98843.38;;;21.62;52.42
56414;BME280;42318;48.452;19.526;2024-02-21T01:02:22;98835.16;;;21.57;52.32
56414;BME280;42318;48.452;19.526;2024-02-21T01:05:23;98834.63;;;21.60;52.31
56414;BME280;42318;48.452;19.526;2024-02-21T01:08:23;98845.03;;;21.63;52.41
56414;BME280;42318;48.452;19.526;2024-02-21T01:11:24;98835.19;;;21.62;52.08
56414;BME280;42318;48.452;19.526;2024-02-21T01:14:25;98829.69;;;21.57;52.13
56414;BME280;42318;48.452;19.526;2024-02-21T01:17:25;98832.47;;;21.62;52.22
56414;BME280;42318;48.452;19.526;2024-02-21T01:20:26;98828.94;;;21.62;52.10
56414;BME280;42318;48.452;19.526;2024-02-21T01:23:26;98816.63;;;21.59;52.48
56414;BME280;42318;48.452;19.526;2024-02-21T01:26:27;98810.34;;;21.59;52.46
56414;BME280;42318;48.452;19.526;2024-02-21T01:29:28;98820.75;;;21.62;52.10
56414;BME280;42318;48.452;19.526;2024-02-21T01:32:28;98814.47;;;21.61;52.42
56414;BME280;42318;48.452;19.526;2024-02-21T01:35:29;98812.81;;;21.60;52.18
56414;BME280;42318;48.452;19.526;2024-02-21T01:38:30;98812.81;;;21.60;52.15
56414;BME280;42318;48.452;19.526;2024-02-21T01:41:32;98805.69;;;21.54;52.49
56414;BME280;42318;48.452;19.526;2024-02-21T01:44:33;98811.69;;;21.56;52.33
56414;BME280;42318;48.452;19.526;2024-02-21T01:47:34;98808.44;;;21.59;52.17
56414;BME280;42318;48.452;19.526;2024-02-21T01:50:35;98799.97;;;21.56;52.28
56414;BME280;42318;48.452;19.526;2024-02-21T01:53:38;98808.19;;;21.61;52.21
56414;BME280;42318;48.452;19.526;2024-02-21T01:56:42;98801.31;;;21.53;52.28
56414;BME280;42318;48.452;19.526;2024-02-21T01:59:43;98797.81;;;21.58;52.21
56414;BME280;42318;48.452;19.526;2024-02-21T02:02:44;98793.69;;;21.55;52.11
56414;BME280;42318;48.452;19.526;2024-02-21T02:05:46;98804.63;;;21.60;52.47
56414;BME280;42318;48.452;19.526;2024-02-21T02:08:47;98810.91;;;21.61;52.00
56414;BME280;42318;48.452;19.526;2024-02-21T02:11:48;98797.28;;;21.61;52.15
56414;BME280;42318;48.452;19.526;2024-02-21T02:14:58;98818.03;;;21.62;51.99
56414;BME280;42318;48.452;19.526;2024-02-21T02:17:59;98801.91;;;21.60;52.07
56414;BME280;42318;48.452;19.526;2024-02-21T02:20:59;98803.56;;;21.61;52.37
56414;BME280;42318;48.452;19.526;2024-02-21T02:24:00;98783.81;;;21.49;52.05
56414;BME280;42318;48.452;19.526;2024-02-21T02:27:01;98785.50;;;21.55;52.46
56414;BME280;42318;48.452;19.526;2024-02-21T02:30:01;98799.19;;;21.60;52.25
56414;BME280;42318;48.452;19.526;2024-02-21T02:33:04;98801.34;;;21.58;52.28
56414;BME280;42318;48.452;19.526;2024-02-21T02:36:05;98799.19;;;21.60;52.50
56414;BME280;42318;48.452;19.526;2024-02-21T02:39:06;98791.00;;;21.60;52.26
56414;BME280;42318;48.452;19.526;2024-02-21T02:42:07;98792.09;;;21.59;52.16
56414;BME280;42318;48.452;19.526;2024-02-21T02:45:08;98796.47;;;21.60;52.45
56414;BME280;42318;48.452;19.526;2024-02-21T02:48:09;98799.19;;;21.60;52.24
56414;BME280;42318;48.452;19.526;2024-02-21T02:51:10;98799.97;;;21.56;52.27
56414;BME280;42318;48.452;19.526;2024-02-21T02:54:11;98812.81;;;21.60;52.61
56414;BME280;42318;48.452;19.526;2024-02-21T02:57:12;98806.56;;;21.60;52.39
56414;BME280;42318;48.452;19.526;2024-02-21T03:00:13;98804.63;;;21.60;52.30
56414;BME280;42318;48.452;19.526;2024-02-21T03:03:14;98808.19;;;21.61;52.10
56414;BME280;42318;48.452;19.526;2024-02-21T03:06:15;98817.44;;;21.60;52.16
56414;BME280;42318;48.452;19.526;2024-02-21T03:09:16;98799.34;;;21.49;52.41
56414;BME280;42318;48.452;19.526;2024-02-21T03:12:17;98807.38;;;21.60;52.33
56414;BME280;42318;48.452;19.526;2024-02-21T03:15:28;98811.19;;;21.59;52.11
56414;BME280;42318;48.452;19.526;2024-02-21T03:18:28;98815.56;;;21.60;52.12
56414;BME280;42318;48.452;19.526;2024-02-21T03:21:29;98820.19;;;21.60;52.06
56414;BME280;42318;48.452;19.526;2024-02-21T03:24:31;98814.47;;;21.61;52.45
56414;BME280;42318;48.452;19.526;2024-02-21T03:27:32;98814.41;;;21.56;52.33
56414;BME280;42318;48.452;19.526;2024-02-21T03:30:32;98812.81;;;21.60;52.29
56414;BME280;42318;48.452;19.526;2024-02-21T03:33:34;98810.09;;;21.60;52.53
56414;BME280;42318;48.452;19.526;2024-02-21T03:36:34;98811.19;;;21.59;52.29
56414;BME280;42318;48.452;19.526;2024-02-21T03:39:35;98832.72;;;21.61;52.47
56414;BME280;42318;48.452;19.526;2024-02-21T03:42:37;98821.25;;;21.59;52.52
56414;BME280;42318;48.452;19.526;2024-02-21T03:45:38;98821.25;;;21.59;52.10
56414;BME280;42318;48.452;19.526;2024-02-21T03:48:38;98821.25;;;21.59;52.08
56414;BME280;42318;48.452;19.526;2024-02-21T03:51:39;98806.97;;;21.47;52.18
56414;BME280;42318;48.452;19.526;2024-02-21T03:54:40;98827.53;;;21.59;52.11
56414;BME280;42318;48.452;19.526;2024-02-21T03:57:40;98827.53;;;21.59;52.08
56414;BME280;42318;48.452;19.526;2024-02-21T04:00:41;98829.44;;;21.59;52.13
56414;BME280;42318;48.452;19.526;2024-02-21T04:03:43;98812.47;;;21.52;52.30
56414;BME280;42318;48.452;19.526;2024-02-21T04:06:50;98834.91;;;21.59;52.39
56414;BME280;42318;48.452;19.526;2024-02-21T04:09:51;98842.25;;;21.58;52.25
56414;BME280;42318;48.452;19.526;2024-02-21T04:12:52;98835.72;;;21.59;52.40
56414;BME280;42318;48.452;19.526;2024-02-21T04:15:53;98843.06;;;21.59;52.31
56414;BME280;42318;48.452;19.526;2024-02-21T04:18:53;98842.25;;;21.58;52.60
56414;BME280;42318;48.452;19.526;2024-02-21T04:21:54;98826.66;;;21.54;52.57
56414;BME280;42318;48.452;19.526;2024-02-21T04:24:54;98833.00;;;21.59;52.58
56414;BME280;42318;48.452;19.526;2024-02-21T04:27:55;98845.53;;;21.60;52.52
56414;BME280;42318;48.452;19.526;2024-02-21T04:30:56;98844.72;;;21.60;52.26
56414;BME280;42318;48.452;19.526;2024-02-21T04:33:56;98846.88;;;21.58;52.17
56414;BME280;42318;48.452;19.526;2024-02-21T04:36:57;98857.53;;;21.59;52.48
56414;BME280;42318;48.452;19.526;2024-02-21T04:39:58;98849.34;;;21.59;52.18
56414;BME280;42318;48.452;19.526;2024-02-21T04:42:58;98853.16;;;21.58;52.20
56414;BME280;42318;48.452;19.526;2024-02-21T04:45:59;98829.59;;;21.47;52.43
56414;BME280;42318;48.452;19.526;2024-02-21T04:49:00;98853.72;;;21.60;52.43
56414;BME280;42318;48.452;19.526;2024-02-21T04:52:01;98852.06;;;21.59;52.12
56414;BME280;42318;48.452;19.526;2024-02-21T04:55:02;98853.97;;;21.59;52.20
56414;BME280;42318;48.452;19.526;2024-02-21T04:58:03;98860.50;;;21.58;52.06
56414;BME280;42318;48.452;19.526;2024-02-21T05:01:03;98862.16;;;21.59;52.26
56414;BME280;42318;48.452;19.526;2024-02-21T05:04:04;98861.59;;;21.57;52.50
56414;BME280;42318;48.452;19.526;2024-02-21T05:07:04;98870.34;;;21.59;52.26
56414;BME280;42318;48.452;19.526;2024-02-21T05:10:07;98874.97;;;21.58;52.04
56414;BME280;42318;48.452;19.526;2024-02-21T05:13:07;98874.41;;;21.56;52.46
56414;BME280;42318;48.452;19.526;2024-02-21T05:16:08;98872.50;;;21.57;52.41
56414;BME280;42318;48.452;19.526;2024-02-21T05:19:08;98860.16;;;21.49;52.20
56414;BME280;42318;48.452;19.526;2024-02-21T05:22:09;98873.31;;;21.57;52.38
56414;BME280;42318;48.452;19.526;2024-02-21T05:25:10;98866.22;;;21.56;52.10
56414;BME280;42318;48.452;19.526;2024-02-21T05:28:11;98872.50;;;21.57;52.22
56414;BME280;42318;48.452;19.526;2024-02-21T05:31:11;98856.34;;;21.50;52.30
56414;BME280;42318;48.452;19.526;2024-02-21T05:34:12;98866.75;;;21.53;52.35
56414;BME280;42318;48.452;19.526;2024-02-21T05:37:12;98878.22;;;21.55;52.35
56414;BME280;42318;48.452;19.526;2024-02-21T05:40:13;98876.31;;;21.56;52.02
56414;BME280;42318;48.452;19.526;2024-02-21T05:43:13;98884.50;;;21.56;52.08
56414;BME280;42318;48.452;19.526;2024-02-21T05:46:14;98876.00;;;21.52;52.46
56414;BME280;42318;48.452;19.526;2024-02-21T05:49:19;98884.75;;;21.54;52.33
56414;BME280;42318;48.452;19.526;2024-02-21T05:52:19;98880.94;;;21.55;52.34
56414;BME280;42318;48.452;19.526;2024-02-21T05:55:20;98891.84;;;21.55;52.13
56414;BME280;42318;48.452;19.526;2024-02-21T05:58:21;98877.59;;;21.48;52.20
56414;BME280;42318;48.452;19.526;2024-02-21T06:01:22;98896.22;;;21.56;52.01
56414;BME280;42318;48.452;19.526;2024-02-21T06:04:23;98893.75;;;21.55;51.98
56414;BME280;42318;48.452;19.526;2024-02-21T06:07:23;98891.84;;;21.55;52.46
56414;BME280;42318;48.452;19.526;2024-02-21T06:10:24;98907.38;;;21.55;52.07
56414;BME280;42318;48.452;19.526;2024-02-21T06:13:24;98909.28;;;21.54;52.19
56414;BME280;42318;48.452;19.526;2024-02-21T06:16:25;98913.66;;;21.55;52.35
56414;BME280;42318;48.452;19.526;2024-02-21T06:19:26;98905.47;;;21.55;52.30
56414;BME280;42318;48.452;19.526;2024-02-21T06:22:26;98901.09;;;21.54;52.34
56414;BME280;42318;48.452;19.526;2024-02-21T06:25:27;98908.47;;;21.54;52.08
56414;BME280;42318;48.452;19.526;2024-02-21T06:28:28;98908.22;;;21.55;52.35
56414;BME280;42318;48.452;19.526;2024-02-21T06:31:28;98919.13;;;21.55;52.00
56414;BME280;42318;48.452;19.526;2024-02-21T06:34:29;98926.22;;;21.56;51.97
56414;BME280;42318;48.452;19.526;2024-02-21T06:37:30;98920.19;;;21.54;51.98
56414;BME280;42318;48.452;19.526;2024-02-21T06:40:32;98918.28;;;21.55;51.88
56414;BME280;42318;48.452;19.526;2024-02-21T06:43:38;98918.84;;;21.57;52.25
56414;BME280;42318;48.452;19.526;2024-02-21T06:46:39;98904.59;;;21.50;51.96
56414;BME280;42318;48.452;19.526;2024-02-21T06:49:39;98919.94;;;21.56;52.16
56414;BME280;42318;48.452;19.526;2024-02-21T06:52:41;98932.50;;;21.57;51.86
56414;BME280;42318;48.452;19.526;2024-02-21T06:55:41;98929.75;;;21.57;52.33
56414;BME280;42318;48.452;19.526;2024-02-21T06:58:42;98931.41;;;21.58;52.26
56414;BME280;42318;48.452;19.526;2024-02-21T07:01:48;98937.44;;;21.60;52.08
56414;BME280;42318;48.452;19.526;2024-02-21T07:04:49;98925.44;;;21.61;52.16
56414;BME280;42318;48.452;19.526;2024-02-21T07:07:50;98930.91;;;21.61;52.08
56414;BME280;42318;48.452;19.526;2024-02-21T07:10:51;98931.47;;;21.63;52.13
56414;BME280;42318;48.452;19.526;2024-02-21T07:13:52;98928.75;;;21.63;51.87
56414;BME280;42318;48.452;19.526;2024-02-21T07:16:53;98938.56;;;21.64;52.00
56414;BME280;42318;48.452;19.526;2024-02-21T07:19:54;98933.94;;;21.64;52.05
56414;BME280;42318;48.452;19.526;2024-02-21T07:22:57;98933.69;;;21.66;51.84
56414;BME280;42318;48.452;19.526;2024-02-21T07:25:57;98929.06;;;21.67;51.70
56414;BME280;42318;48.452;19.526;2024-02-21T07:29:00;98930.47;;;21.69;51.67
56414;BME280;42318;48.452;19.526;2024-02-21T07:32:01;98936.75;;;21.70;51.83
56414;BME280;42318;48.452;19.526;2024-02-21T07:35:02;98938.41;;;21.71;51.69
56414;BME280;42318;48.452;19.526;2024-02-21T07:38:03;98944.41;;;21.73;51.85
56414;BME280;42318;48.452;19.526;2024-02-21T07:41:04;98933.25;;;21.74;51.63
56414;BME280;42318;48.452;19.526;2024-02-21T07:44:04;98944.16;;;21.74;51.42
56414;BME280;42318;48.452;19.526;2024-02-21T07:47:05;98947.47;;;21.76;51.27
56414;BME280;42318;48.452;19.526;2024-02-21T07:50:07;98949.09;;;21.77;51.38
56414;BME280;42318;48.452;19.526;2024-02-21T07:53:08;98948.84;;;21.79;51.31
56414;BME280;42318;48.452;19.526;2024-02-21T07:56:09;98943.97;;;21.81;51.53
56414;BME280;42318;48.452;19.526;2024-02-21T07:59:09;98949.41;;;21.81;51.60
56414;BME280;42318;48.452;19.526;2024-02-21T08:02:11;98945.59;;;21.82;51.36
56414;BME280;42318;48.452;19.526;2024-02-21T08:05:12;98934.69;;;21.82;51.26
56414;BME280;42318;48.452;19.526;2024-02-21T08:08:13;98942.63;;;21.83;51.65
56414;BME280;42318;48.452;19.526;2024-02-21T08:11:19;98938.50;;;21.81;51.59
56414;BME280;42318;48.452;19.526;2024-02-21T08:14:19;98933.34;;;21.84;51.50
56414;BME280;42318;48.452;19.526;2024-02-21T08:17:20;98932.53;;;21.84;51.33
56414;BME280;42318;48.452;19.526;2024-02-21T08:20:20;98937.72;;;21.85;51.57
56414;BME280;42318;48.452;19.526;2024-02-21T08:23:23;98930.38;;;21.86;51.59
56414;BME280;42318;48.452;19.526;2024-02-21T08:26:23;98918.63;;;21.85;51.41
56414;BME280;42318;48.452;19.526;2024-02-21T08:29:24;98917.56;;;21.86;51.03
56414;BME280;42318;48.452;19.526;2024-02-21T08:32:25;98921.09;;;21.87;51.05
56414;BME280;42318;48.452;19.526;2024-02-21T08:35:25;98905.81;;;21.86;51.29
56414;BME280;42318;48.452;19.526;2024-02-21T08:38:26;98915.66;;;21.87;50.88
56414;BME280;42318;48.452;19.526;2024-02-21T08:41:27;98909.94;;;21.88;50.76
56414;BME280;42318;48.452;19.526;2024-02-21T08:44:28;98906.38;;;21.88;50.67
56414;BME280;42318;48.452;19.526;2024-02-21T08:47:29;98888.28;;;21.77;50.71
56414;BME280;42318;48.452;19.526;2024-02-21T08:50:29;98902.84;;;21.87;50.58
56414;BME280;42318;48.452;19.526;2024-02-21T08:53:30;98900.94;;;21.88;50.67
56414;BME280;42318;48.452;19.526;2024-02-21T08:56:30;98904.22;;;21.90;50.77
56414;BME280;42318;48.452;19.526;2024-02-21T08:59:31;98911.31;;;21.91;50.48
56414;BME280;42318;48.452;19.526;2024-02-21T09:02:32;98901.22;;;21.91;50.41
56414;BME280;42318;48.452;19.526;2024-02-21T09:05:33;98902.06;;;21.92;50.79
56414;BME280;42318;48.452;19.526;2024-02-21T09:08:35;98898.25;;;21.93;50.40
56414;BME280;42318;48.452;19.526;2024-02-21T09:11:36;98898.25;;;21.93;50.45
56414;BME280;42318;48.452;19.526;2024-02-21T09:14:37;98899.91;;;21.94;50.28
56414;BME280;42318;48.452;19.526;2024-02-21T09:17:39;98897.16;;;21.94;50.60
56414;BME280;42318;48.452;19.526;2024-02-21T09:20:39;98896.34;;;21.93;50.20
56414;BME280;42318;48.452;19.526;2024-02-21T09:23:40;98893.34;;;21.95;50.53
56414;BME280;42318;48.452;19.526;2024-02-21T09:26:40;98893.34;;;21.95;50.23
56414;BME280;42318;48.452;19.526;2024-02-21T09:29:41;98889.53;;;21.96;50.15
56414;BME280;42318;48.452;19.526;2024-02-21T09:32:42;98879.41;;;21.91;50.03
56414;BME280;42318;48.452;19.526;2024-02-21T09:35:43;98872.09;;;21.97;50.16
56414;BME280;42318;48.452;19.526;2024-02-21T09:38:43;98867.72;;;21.96;50.22
56414;BME280;42318;48.452;19.526;2024-02-21T09:41:49;98869.91;;;21.99;50.52
56414;BME280;42318;48.452;19.526;2024-02-21T09:44:53;98869.91;;;21.99;50.20
56414;BME280;42318;48.452;19.526;2024-02-21T09:51:18;98875.94;;;22.01;49.98
56414;BME280;42318;48.452;19.526;2024-02-21T09:54:20;98859.00;;;21.99;49.95
56414;BME280;42318;48.452;19.526;2024-02-21T09:57:22;98861.47;;;22.01;50.16
56414;BME280;42318;48.452;19.526;2024-02-21T10:00:23;98854.91;;;21.97;49.98
56414;BME280;42318;48.452;19.526;2024-02-21T10:03:24;98853.03;;;22.02;50.01
56414;BME280;42318;48.452;19.526;2024-02-21T10:06:24;98850.91;;;22.04;49.99
56414;BME280;42318;48.452;19.526;2024-02-21T10:09:28;98858.00;;;22.05;49.67
56414;BME280;42318;48.452;19.526;2024-02-21T10:12:29;98833.88;;;21.97;49.74
56414;BME280;42318;48.452;19.526;2024-02-21T10:15:30;98846.72;;;21.97;49.79
56414;BME280;42318;48.452;19.526;2024-02-21T10:18:34;98853.03;;;22.02;49.80
56414;BME280;42318;48.452;19.526;2024-02-21T10:21:35;98860.72;;;22.05;49.78
56414;BME280;42318;48.452;19.526;2024-02-21T10:24:36;98852.81;;;22.04;49.86
56414;BME280;42318;48.452;19.526;2024-02-21T10:27:42;98842.13;;;22.02;49.75
56414;BME280;42318;48.452;19.526;2024-02-21T10:30:50;98841.28;;;22.02;49.77
56414;BME280;42318;48.452;19.526;2024-02-21T10:33:59;98834.19;;;22.01;49.75
56414;BME280;42318;48.452;19.526;2024-02-21T10:37:08;98827.09;;;22.00;49.77
56414;BME280;42318;48.452;19.526;2024-02-21T10:40:09;98822.69;;;21.93;50.28
56414;BME280;42318;48.452;19.526;2024-02-21T10:43:12;98820.00;;;21.99;49.90
56414;BME280;42318;48.452;19.526;2024-02-21T10:46:15;98803.84;;;21.92;49.91
56414;BME280;42318;48.452;19.526;2024-02-21T10:49:23;98813.72;;;21.98;50.01
56414;BME280;42318;48.452;19.526;2024-02-21T10:52:46;98817.53;;;21.97;49.87
56414;BME280;42318;48.452;19.526;2024-02-21T10:55:58;98806.28;;;21.88;50.04
56414;BME280;42318;48.452;19.526;2024-02-21T10:59:01;98817.78;;;21.95;50.40
56414;BME280;42318;48.452;19.526;2024-02-21T11:02:03;98807.13;;;21.94;50.16
56414;BME280;42318;48.452;19.526;2024-02-21T11:05:04;98811.50;;;21.95;49.95
56414;BME280;42318;48.452;19.526;2024-02-21T11:08:05;98800.84;;;21.93;50.26
56414;BME280;42318;48.452;19.526;2024-02-21T11:11:06;98800.03;;;21.93;50.48
56414;BME280;42318;48.452;19.526;2024-02-21T11:14:17;98789.13;;;21.93;50.07
56414;BME280;42318;48.452;19.526;2024-02-21T11:17:19;98789.94;;;21.93;50.20
56414;BME280;42318;48.452;19.526;2024-02-21T11:20:32;98777.38;;;21.92;49.80
56414;BME280;42318;48.452;19.526;2024-02-21T11:23:32;98771.66;;;21.94;50.65
56414;BME280;42318;48.452;19.526;2024-02-21T11:26:33;98767.03;;;21.94;50.80
56414;BME280;42318;48.452;19.526;2024-02-21T11:29:47;98760.22;;;21.97;51.40
56414;BME280;42318;48.452;19.526;2024-02-21T11:32:49;98764.88;;;21.97;51.47
56414;BME280;42318;48.452;19.526;2024-02-21T11:35:50;98761.31;;;21.96;51.80
56414;BME280;42318;48.452;19.526;2024-02-21T11:38:52;98764.59;;;21.98;51.71
56414;BME280;42318;48.452;19.526;2024-02-21T11:42:03;98762.97;;;21.97;51.77
56414;BME280;42318;48.452;19.526;2024-02-21T11:45:06;98758.28;;;21.92;51.85
56414;BME280;42318;48.452;19.526;2024-02-21T11:48:09;98754.50;;;21.99;52.16
56414;BME280;42318;48.452;19.526;2024-02-21T11:51:09;98744.41;;;21.99;52.19
56414;BME280;42318;48.452;19.526;2024-02-21T11:54:11;98741.69;;;21.99;52.25
56414;BME280;42318;48.452;19.526;2024-02-21T11:57:11;98751.25;;;22.02;51.86
56414;BME280;42318;48.452;19.526;2024-02-21T12:00:16;98750.44;;;22.01;51.77
56414;BME280;42318;48.452;19.526;2024-02-21T12:03:18;98730.19;;;21.92;51.72
56414;BME280;42318;48.452;19.526;2024-02-21T12:06:18;98739.22;;;21.98;51.71
56414;BME280;42318;48.452;19.526;2024-02-21T12:09:23;98741.69;;;21.99;51.78
56414;BME280;42318;48.452;19.526;2024-02-21T12:12:24;98732.13;;;21.97;51.70
56414;BME280;42318;48.452;19.526;2024-02-21T12:15:24;98729.66;;;21.95;51.86
56414;BME280;42318;48.452;19.526;2024-02-21T12:18:25;98724.19;;;21.95;51.81
56414;BME280;42318;48.452;19.526;2024-02-21T12:21:27;98725.59;;;21.98;51.84
56414;BME280;42318;48.452;19.526;2024-02-21T12:24:30;98720.34;;;21.91;51.63
56414;BME280;42318;48.452;19.526;2024-02-21T12:27:31;98720.94;;;21.98;51.77
56414;BME280;42318;48.452;19.526;2024-02-21T12:30:31;98726.66;;;21.97;51.83
56414;BME280;42318;48.452;19.526;2024-02-21T12:33:34;98723.69;;;21.98;52.03
56414;BME280;42318;48.452;19.526;2024-02-21T12:36:41;98722.59;;;21.99;51.76
56414;BME280;42318;48.452;19.526;2024-02-21T12:39:43;98715.22;;;22.00;51.62
56414;BME280;42318;48.452;19.526;2024-02-21T12:42:44;98713.06;;;22.02;51.41
56414;BME280;42318;48.452;19.526;2024-02-21T12:45:46;98710.59;;;22.00;51.71
56414;BME280;42318;48.452;19.526;2024-02-21T12:48:46;98692.03;;;21.97;51.62
56414;BME280;42318;48.452;19.526;2024-02-21T12:51:47;98715.28;;;22.05;51.79
56414;BME280;42318;48.452;19.526;2024-02-21T12:54:47;98708.19;;;22.04;51.71
56414;BME280;42318;48.452;19.526;2024-02-21T12:57:48;98706.28;;;22.04;51.79
56414;BME280;42318;48.452;19.526;2024-02-21T13:00:49;98695.91;;;22.06;52.17
56414;BME280;42318;48.452;19.526;2024-02-21T13:03:50;98688.81;;;22.05;51.87
56414;BME280;42318;48.452;19.526;2024-02-21T13:06:53;98683.63;;;22.04;52.30
56414;BME280;42318;48.452;19.526;2024-02-21T13:09:55;98692.09;;;22.07;52.62
56414;BME280;42318;48.452;19.526;2024-02-21T13:12:56;98688.28;;;22.08;52.49
56414;BME280;42318;48.452;19.526;2024-02-21T13:15:57;98680.66;;;22.10;52.96
56414;BME280;42318;48.452;19.526;2024-02-21T13:18:58;98677.09;;;22.10;53.46
56414;BME280;42318;48.452;19.526;2024-02-21T13:21:59;98669.50;;;22.12;53.41
56414;BME280;42318;48.452;19.526;2024-02-21T13:25:00;98649.47;;;21.96;53.37
56414;BME280;42318;48.452;19.526;2024-02-21T13:28:01;98673.56;;;22.09;53.22
56414;BME280;42318;48.452;19.526;2024-02-21T13:31:03;98660.75;;;22.10;53.24
56414;BME280;42318;48.452;19.526;2024-02-21T13:34:04;98662.66;;;22.09;53.09
56414;BME280;42318;48.452;19.526;2024-02-21T13:37:05;98669.19;;;22.08;53.29
56414;BME280;42318;48.452;19.526;2024-02-21T13:40:08;98677.94;;;22.10;53.37
56414;BME280;42318;48.452;19.526;2024-02-21T13:43:12;98674.38;;;22.10;53.38
56414;BME280;42318;48.452;19.526;2024-02-21T13:46:13;98672.47;;;22.10;53.29
56414;BME280;42318;48.452;19.526;2024-02-21T13:49:15;98663.72;;;22.08;53.37
56414;BME280;42318;48.452;19.526;2024-02-21T13:52:16;98659.38;;;22.07;53.24
56414;BME280;42318;48.452;19.526;2024-02-21T13:55:17;98655.28;;;22.10;53.20
56414;BME280;42318;48.452;19.526;2024-02-21T13:58:18;98662.66;;;22.09;52.68
56414;BME280;42318;48.452;19.526;2024-02-21T14:01:19;98654.94;;;22.01;52.81
56414;BME280;42318;48.452;19.526;2024-02-21T14:04:19;98660.19;;;22.08;52.68
56414;BME280;42318;48.452;19.526;2024-02-21T14:07:20;98658.28;;;22.08;52.70
56414;BME280;42318;48.452;19.526;2024-02-21T14:10:23;98655.56;;;22.08;52.73
56414;BME280;42318;48.452;19.526;2024-02-21T14:13:24;98639.16;;;22.03;52.78
56414;BME280;42318;48.452;19.526;2024-02-21T14:16:25;98633.63;;;21.98;52.75
56414;BME280;42318;48.452;19.526;2024-02-21T14:19:25;98641.91;;;22.08;52.52
56414;BME280;42318;48.452;19.526;2024-02-21T14:22:26;98638.09;;;22.09;52.60
56414;BME280;42318;48.452;19.526;2024-02-21T14:25:27;98636.19;;;22.10;52.95
56414;BME280;42318;48.452;19.526;2024-02-21T14:28:28;98648.19;;;22.09;52.55
56414;BME280;42318;48.452;19.526;2024-02-21T14:31:31;98639.19;;;22.08;52.55
56414;BME280;42318;48.452;19.526;2024-02-21T14:34:31;98643.81;;;22.08;52.62
56414;BME280;42318;48.452;19.526;2024-02-21T14:37:32;98625.19;;;22.00;52.30
56414;BME280;42318;48.452;19.526;2024-02-21T14:40:33;98646.28;;;22.09;52.82
56414;BME280;42318;48.452;19.526;2024-02-21T14:43:34;98638.09;;;22.09;52.66
56414;BME280;42318;48.452;19.526;2024-02-21T14:46:37;98622.78;;;22.03;52.39
56414;BME280;42318;48.452;19.526;2024-02-21T14:49:38;98630.72;;;22.10;52.38
56414;BME280;42318;48.452;19.526;2024-02-21T14:52:39;98623.63;;;22.09;52.12
56414;BME280;42318;48.452;19.526;2024-02-21T14:55:40;98629.63;;;22.11;52.19
56414;BME280;42318;48.452;19.526;2024-02-21T14:58:42;98629.91;;;22.09;51.98
56414;BME280;42318;48.452;19.526;2024-02-21T15:01:43;98623.63;;;22.09;52.30
56414;BME280;42318;48.452;19.526;2024-02-21T15:04:44;98623.34;;;22.10;52.39
56414;BME280;42318;48.452;19.526;2024-02-21T15:07:44;98624.44;;;22.09;52.16
56414;BME280;42318;48.452;19.526;2024-02-21T15:10:45;98619.00;;;22.09;52.50
56414;BME280;42318;48.452;19.526;2024-02-21T15:13:46;98614.06;;;22.06;52.18
56414;BME280;42318;48.452;19.526;2024-02-21T15:16:47;98623.13;;;22.12;52.26
56414;BME280;42318;48.452;19.526;2024-02-21T15:19:47;98611.34;;;22.06;52.48
56414;BME280;42318;48.452;19.526;2024-02-21T15:22:48;98622.31;;;22.11;52.47
56414;BME280;42318;48.452;19.526;2024-02-21T15:25:49;98613.25;;;22.11;52.54
56414;BME280;42318;48.452;19.526;2024-02-21T15:28:51;98614.63;;;22.08;52.23
56414;BME280;42318;48.452;19.526;2024-02-21T15:31:54;98623.34;;;22.10;52.37
56414;BME280;42318;48.452;19.526;2024-02-21T15:34:55;98620.63;;;22.10;52.33
56414;BME280;42318;48.452;19.526;2024-02-21T15:37:57;98620.63;;;22.10;52.32
56414;BME280;42318;48.452;19.526;2024-02-21T15:40:59;98610.53;;;22.11;52.08
56414;BME280;42318;48.452;19.526;2024-02-21T15:43:59;98614.13;;;22.11;52.26
56414;BME280;42318;48.452;19.526;2024-02-21T15:47:00;98617.91;;;22.10;52.11
56414;BME280;42318;48.452;19.526;2024-02-21T15:50:01;98611.38;;;22.11;52.29
56414;BME280;42318;48.452;19.526;2024-02-21T15:53:03;98614.34;;;22.10;51.98